createdAt,value
2022-11-29T00:00:18.603Z,6.70
2022-11-29T00:03:06.916Z,6.50
2022-11-29T00:05:53.982Z,6.70
2022-11-29T00:08:42.731Z,6.40
2022-11-29T00:11:49.048Z,7.00
2022-11-29T00:14:38.785Z,6.90
2022-11-29T00:17:25.517Z,6.70
2022-11-29T00:20:15.472Z,6.90
2022-11-29T00:23:02.241Z,6.70
2022-11-29T00:25:50.813Z,6.70
2022-11-29T00:28:37.529Z,7.20
2022-11-29T00:31:27.769Z,6.90
2022-11-29T00:34:14.446Z,6.60
2022-11-29T00:37:02.787Z,6.30
2022-11-29T00:39:49.457Z,6.80
2022-11-29T00:42:37.828Z,6.80
2022-11-29T00:45:24.519Z,6.90
2022-11-29T00:48:12.821Z,6.90
2022-11-29T00:50:59.629Z,6.50
2022-11-29T00:53:47.840Z,6.50
2022-11-29T00:56:34.523Z,6.70
2022-11-29T00:59:22.714Z,6.60
2022-11-29T01:02:09.486Z,6.50
2022-11-29T01:04:57.793Z,7.00
2022-11-29T01:07:44.590Z,7.00
2022-11-29T01:10:32.843Z,6.70
2022-11-29T01:13:19.631Z,6.70
2022-11-29T01:16:07.732Z,6.90
2022-11-29T01:18:54.435Z,6.70
2022-11-29T01:21:42.725Z,6.90
2022-11-29T01:24:30.249Z,6.80
2022-11-29T01:27:18.856Z,6.60
2022-11-29T01:30:06.504Z,6.50
2022-11-29T01:32:54.829Z,6.50
2022-11-29T01:35:46.682Z,7.10
2022-11-29T01:38:35.754Z,6.60
2022-11-29T01:41:24.307Z,6.50
2022-11-29T01:44:15.790Z,6.80
2022-11-29T01:47:02.532Z,6.40
2022-11-29T01:49:51.747Z,6.40
2022-11-29T01:52:38.607Z,6.50
2022-11-29T01:55:26.763Z,6.30
2022-11-29T01:58:14.804Z,6.80
2022-11-29T02:01:02.815Z,6.40
2022-11-29T02:03:49.635Z,6.60
2022-11-29T02:06:36.395Z,6.40
2022-11-29T02:09:23.490Z,6.70
2022-11-29T02:12:10.224Z,6.50
2022-11-29T02:15:05.339Z,6.60
2022-11-29T02:18:24.662Z,6.20
2022-11-29T02:21:30.109Z,6.40
2022-11-29T02:24:31.050Z,6.40
2022-11-29T02:27:17.844Z,6.30
2022-11-29T02:30:12.364Z,6.30
2022-11-29T02:33:17.682Z,6.20
2022-11-29T02:36:12.211Z,6.20
2022-11-29T02:38:58.872Z,6.10
2022-11-29T02:41:48.616Z,6.30
2022-11-29T02:44:47.657Z,6.00
2022-11-29T02:47:37.396Z,5.90
2022-11-29T02:50:42.929Z,5.90
2022-11-29T02:53:32.806Z,5.90
2022-11-29T02:56:34.263Z,5.80
2022-11-29T02:59:41.603Z,5.80
2022-11-29T03:02:32.561Z,5.70
2022-11-29T03:05:24.055Z,6.20
2022-11-29T03:08:10.738Z,6.10
2022-11-29T03:11:06.801Z,5.70
2022-11-29T03:14:12.280Z,5.70
2022-11-29T03:17:11.748Z,5.70
2022-11-29T03:20:01.891Z,5.70
2022-11-29T03:23:04.005Z,5.70
2022-11-29T03:25:56.911Z,5.60
2022-11-29T03:28:46.494Z,5.70
2022-11-29T03:31:35.808Z,5.60
2022-11-29T03:34:46.197Z,5.40
2022-11-29T03:37:53.382Z,5.50
2022-11-29T03:40:55.313Z,5.50
2022-11-29T03:44:00.417Z,5.50
2022-11-29T03:46:47.184Z,5.50
2022-11-29T03:49:49.267Z,5.80
2022-11-29T03:52:36.010Z,5.10
2022-11-29T03:55:25.941Z,5.40
2022-11-29T03:58:12.567Z,5.40
2022-11-29T04:01:18.153Z,6.40
2022-11-29T04:04:33.226Z,5.50
2022-11-29T04:07:23.000Z,5.50
2022-11-29T04:10:22.575Z,5.40
2022-11-29T04:13:29.768Z,5.40
2022-11-29T04:16:35.368Z,5.40
2022-11-29T04:19:31.171Z,5.40
2022-11-29T04:22:20.907Z,5.50
2022-11-29T04:25:07.528Z,5.60
2022-11-29T04:27:57.314Z,5.40
2022-11-29T04:30:47.146Z,5.60
2022-11-29T04:33:40.110Z,5.60
2022-11-29T04:36:45.581Z,5.60
2022-11-29T04:39:56.653Z,5.50
2022-11-29T04:42:55.213Z,5.40
2022-11-29T04:45:56.113Z,5.40
2022-11-29T04:48:54.996Z,5.40
2022-11-29T04:51:47.843Z,5.40
2022-11-29T04:54:53.600Z,5.20
2022-11-29T04:57:45.003Z,5.30
2022-11-29T05:00:35.212Z,6.20
2022-11-29T05:03:41.583Z,5.70
2022-11-29T05:06:37.315Z,5.30
2022-11-29T05:09:42.859Z,5.20
2022-11-29T05:12:33.189Z,5.20
2022-11-29T05:15:38.828Z,5.40
2022-11-29T05:18:31.599Z,5.10
2022-11-29T05:21:38.713Z,5.10
2022-11-29T05:24:25.403Z,5.00
2022-11-29T05:27:27.408Z,5.30
2022-11-29T05:30:21.391Z,4.90
2022-11-29T05:33:23.438Z,4.90
2022-11-29T05:36:32.616Z,4.90
2022-11-29T05:39:34.674Z,4.90
2022-11-29T05:42:34.724Z,4.90
2022-11-29T05:45:25.463Z,4.80
2022-11-29T05:48:24.496Z,5.10
2022-11-29T05:51:29.571Z,4.80
2022-11-29T05:54:35.173Z,4.80
2022-11-29T05:57:33.911Z,4.80
2022-11-29T06:00:20.735Z,4.90
2022-11-29T06:03:17.942Z,4.90
2022-11-29T06:06:25.004Z,4.90
2022-11-29T06:09:28.302Z,5.00
2022-11-29T06:12:20.778Z,5.00
2022-11-29T06:15:15.418Z,5.30
2022-11-29T06:18:28.442Z,4.90
2022-11-29T06:21:22.459Z,4.90
2022-11-29T06:24:26.097Z,4.80
2022-11-29T06:27:29.725Z,4.80
2022-11-29T06:30:20.859Z,4.70
2022-11-29T06:33:15.232Z,4.70
2022-11-29T06:36:11.076Z,4.60
2022-11-29T06:38:57.938Z,4.60
2022-11-29T06:41:44.609Z,4.50
2022-11-29T06:44:31.475Z,4.50
2022-11-29T06:47:21.138Z,4.50
2022-11-29T06:50:20.071Z,4.50
2022-11-29T06:53:45.446Z,4.40
2022-11-29T06:56:40.705Z,4.40
2022-11-29T06:59:47.490Z,4.30
2022-11-29T07:02:54.512Z,4.30
2022-11-29T07:05:41.435Z,4.60
2022-11-29T07:08:28.469Z,4.40
2022-11-29T07:11:15.232Z,4.50
2022-11-29T07:14:02.207Z,4.50
2022-11-29T07:16:53.171Z,4.60
2022-11-29T07:19:48.840Z,5.00
2022-11-29T07:22:51.730Z,4.60
2022-11-29T07:25:43.566Z,4.70
2022-11-29T07:28:38.954Z,5.10
2022-11-29T07:31:28.762Z,4.70
2022-11-29T07:34:27.472Z,4.70
2022-11-29T07:37:24.120Z,4.80
2022-11-29T07:40:25.308Z,4.80
2022-11-29T07:43:18.149Z,4.90
2022-11-29T07:46:04.924Z,5.00
2022-11-29T07:48:51.655Z,4.90
2022-11-29T07:51:38.317Z,5.60
2022-11-29T07:54:25.080Z,5.10
2022-11-29T07:57:11.838Z,5.00
2022-11-29T07:59:58.595Z,5.50
2022-11-29T08:02:46.158Z,5.10
2022-11-29T08:05:32.895Z,5.30
2022-11-29T08:08:19.596Z,5.50
2022-11-29T08:11:13.033Z,5.20
2022-11-29T08:14:00.993Z,5.10
2022-11-29T08:16:47.827Z,5.60
2022-11-29T08:19:34.691Z,5.60
2022-11-29T08:22:21.483Z,5.60
2022-11-29T08:25:08.920Z,5.80
2022-11-29T08:27:55.976Z,5.40
2022-11-29T08:30:42.750Z,5.70
2022-11-29T08:33:29.706Z,5.80
2022-11-29T08:36:18.136Z,5.90
2022-11-29T08:39:09.240Z,5.70
2022-11-29T08:41:56.312Z,5.70
2022-11-29T08:44:43.317Z,5.70
2022-11-29T08:47:36.089Z,5.80
2022-11-29T08:50:22.824Z,5.20
2022-11-29T08:53:28.196Z,5.90
2022-11-29T08:59:22.584Z,5.60
2022-11-29T09:02:09.493Z,5.60
2022-11-29T09:04:56.277Z,5.70
2022-11-29T09:07:43.403Z,5.90
2022-11-29T09:10:30.247Z,6.40
2022-11-29T09:13:18.286Z,6.00
2022-11-29T09:16:12.297Z,5.90
2022-11-29T09:18:59.201Z,5.60
2022-11-29T09:21:45.894Z,5.90
2022-11-29T09:24:33.673Z,5.60
2022-11-29T09:27:20.330Z,5.80
2022-11-29T09:30:08.225Z,5.70
2022-11-29T09:32:54.954Z,5.80
2022-11-29T09:35:42.518Z,6.20
2022-11-29T09:38:29.424Z,6.00
2022-11-29T09:41:16.152Z,6.00
2022-11-29T09:44:09.084Z,6.50
2022-11-29T09:47:14.488Z,5.90
2022-11-29T09:50:07.926Z,6.00
2022-11-29T09:53:15.524Z,6.40
2022-11-29T09:56:08.255Z,6.00
2022-11-29T09:59:00.711Z,5.80
2022-11-29T10:01:50.092Z,6.10
2022-11-29T10:04:40.407Z,6.20
2022-11-29T10:07:33.618Z,6.50
2022-11-29T10:10:22.697Z,6.20
2022-11-29T10:13:28.329Z,6.20
2022-11-29T10:16:23.276Z,6.20
2022-11-29T10:19:15.569Z,6.30
2022-11-29T10:22:07.724Z,6.80
2022-11-29T10:24:57.597Z,6.40
2022-11-29T10:27:44.251Z,6.70
2022-11-29T10:30:34.059Z,6.60
2022-11-29T10:33:22.246Z,6.60
2022-11-29T10:36:16.773Z,6.70
2022-11-29T10:39:11.475Z,6.80
2022-11-29T10:42:02.544Z,7.30
2022-11-29T10:44:49.302Z,7.30
2022-11-29T10:47:36.297Z,7.40
2022-11-29T10:50:25.002Z,7.30
2022-11-29T10:53:13.766Z,7.70
2022-11-29T10:56:00.708Z,7.40
2022-11-29T10:59:00.377Z,7.90
2022-11-29T11:01:48.613Z,7.20
2022-11-29T11:04:36.928Z,7.80
2022-11-29T11:07:26.699Z,7.20
2022-11-29T11:10:21.577Z,7.40
2022-11-29T11:13:21.705Z,7.20
2022-11-29T11:16:10.294Z,7.40
2022-11-29T11:18:59.740Z,7.20
2022-11-29T11:21:46.546Z,7.20
2022-11-29T11:24:35.520Z,7.20
2022-11-29T11:27:36.268Z,7.30
2022-11-29T11:30:29.656Z,7.30
2022-11-29T11:33:21.897Z,7.30
2022-11-29T11:36:13.572Z,7.70
2022-11-29T11:39:13.074Z,7.40
2022-11-29T11:42:22.523Z,7.30
2022-11-29T11:45:09.214Z,7.60
2022-11-29T11:47:59.625Z,7.40
2022-11-29T11:50:49.341Z,8.00
2022-11-29T11:53:38.577Z,7.10
2022-11-29T11:56:33.453Z,7.70
2022-11-29T11:59:23.650Z,7.40
2022-11-29T12:02:24.906Z,7.30
2022-11-29T12:05:15.551Z,7.40
2022-11-29T12:08:08.112Z,8.10
2022-11-29T12:11:02.770Z,7.70
2022-11-29T12:13:55.554Z,7.40
2022-11-29T12:16:44.568Z,7.60
2022-11-29T12:19:34.843Z,7.40
2022-11-29T12:22:25.613Z,7.70
2022-11-29T12:25:15.084Z,7.80
2022-11-29T12:28:03.739Z,7.40
2022-11-29T12:30:50.514Z,7.80
2022-11-29T12:33:38.521Z,7.30
2022-11-29T12:36:41.466Z,7.60
2022-11-29T12:39:48.563Z,7.30
2022-11-29T12:42:53.982Z,7.20
2022-11-29T12:45:49.533Z,7.30
2022-11-29T12:48:41.292Z,7.30
2022-11-29T12:51:41.512Z,7.60
2022-11-29T12:54:34.352Z,7.30
2022-11-29T12:57:37.560Z,7.30
2022-11-29T13:00:24.968Z,7.30
2022-11-29T13:03:15.548Z,7.30
2022-11-29T13:06:05.369Z,7.40
2022-11-29T13:09:04.571Z,7.30
2022-11-29T13:12:13.641Z,7.30
2022-11-29T13:15:13.491Z,7.40
2022-11-29T13:18:14.390Z,7.40
2022-11-29T13:21:17.537Z,7.40
2022-11-29T13:24:08.827Z,7.40
2022-11-29T13:27:00.572Z,7.40
2022-11-29T13:29:48.189Z,7.80
2022-11-29T13:32:37.462Z,7.70
2022-11-29T13:35:36.308Z,7.70
2022-11-29T13:38:28.553Z,7.40
2022-11-29T13:41:15.207Z,8.00
2022-11-29T13:44:22.492Z,7.70
2022-11-29T13:47:10.891Z,7.00
2022-11-29T13:50:05.532Z,7.60
2022-11-29T13:53:02.599Z,7.40
2022-11-29T13:55:50.460Z,7.50
2022-11-29T13:58:38.472Z,7.70
2022-11-29T14:01:28.674Z,7.70
2022-11-29T14:04:29.947Z,7.30
2022-11-29T14:07:22.551Z,7.30
2022-11-29T14:10:28.431Z,7.30
2022-11-29T14:13:17.499Z,7.40
2022-11-29T14:16:05.013Z,7.60
2022-11-29T14:19:11.501Z,7.30
2022-11-29T14:22:07.355Z,7.30
2022-11-29T14:25:11.641Z,7.30
2022-11-29T14:28:14.370Z,7.30
2022-11-29T14:31:03.596Z,7.30
2022-11-29T14:34:03.820Z,7.40
2022-11-29T14:36:56.641Z,7.90
2022-11-29T14:39:51.926Z,7.90
2022-11-29T14:42:46.490Z,7.30
2022-11-29T14:45:34.219Z,7.60
2022-11-29T14:48:29.628Z,7.30
2022-11-29T14:51:28.632Z,7.30
2022-11-29T14:54:16.535Z,7.20
2022-11-29T14:57:22.077Z,7.80
2022-11-29T15:00:12.504Z,7.10
2022-11-29T15:03:20.714Z,7.10
2022-11-29T15:06:12.450Z,7.10
2022-11-29T15:09:12.885Z,7.00
2022-11-29T15:12:04.479Z,7.10
2022-11-29T15:14:51.177Z,7.40
2022-11-29T15:18:03.504Z,7.20
2022-11-29T15:21:04.831Z,7.00
2022-11-29T15:23:58.492Z,7.00
2022-11-29T15:26:58.321Z,7.00
2022-11-29T15:29:50.454Z,7.00
2022-11-29T15:32:37.301Z,7.20
2022-11-29T15:35:25.468Z,7.10
2022-11-29T15:38:16.910Z,7.30
2022-11-29T15:41:04.643Z,6.90
2022-11-29T15:43:53.308Z,7.40
2022-11-29T15:46:40.080Z,7.00
2022-11-29T15:49:27.891Z,7.10
2022-11-29T15:52:20.652Z,7.40
2022-11-29T15:55:10.945Z,7.10
2022-11-29T15:58:01.580Z,7.00
2022-11-29T16:00:52.860Z,7.20
2022-11-29T16:03:42.462Z,6.90
2022-11-29T16:06:32.082Z,6.90
2022-11-29T16:09:23.083Z,6.90
2022-11-29T16:12:14.410Z,6.90
2022-11-29T16:18:14.021Z,7.10
2022-11-29T16:21:02.486Z,6.80
2022-11-29T16:23:49.435Z,7.00
2022-11-29T16:26:39.483Z,6.60
2022-11-29T16:29:32.287Z,6.90
2022-11-29T16:32:19.011Z,6.80
2022-11-29T16:35:26.141Z,6.90
2022-11-29T16:38:22.601Z,7.10
2022-11-29T16:41:21.059Z,6.70
2022-11-29T16:44:26.243Z,6.80
2022-11-29T16:47:17.884Z,7.20
2022-11-29T16:50:08.566Z,6.70
2022-11-29T16:52:56.983Z,6.80
2022-11-29T16:55:43.908Z,6.70
2022-11-29T16:58:30.941Z,6.90
2022-11-29T17:04:25.200Z,6.70
2022-11-29T17:07:17.165Z,6.70
2022-11-29T17:10:11.821Z,7.10
2022-11-29T17:12:59.583Z,6.70
2022-11-29T17:15:46.305Z,6.90
2022-11-29T17:18:33.012Z,6.90
2022-11-29T17:21:19.769Z,6.60
2022-11-29T17:24:06.792Z,6.70
2022-11-29T17:26:53.612Z,6.70
2022-11-29T17:29:40.432Z,6.60
2022-11-29T17:32:27.344Z,6.90
2022-11-29T17:35:14.322Z,6.70
2022-11-29T17:38:00.978Z,6.70
2022-11-29T17:40:50.472Z,6.90
2022-11-29T17:43:37.657Z,6.80
2022-11-29T17:46:26.154Z,7.30
2022-11-29T17:49:12.851Z,6.70
2022-11-29T17:51:59.744Z,6.80
2022-11-29T17:54:46.469Z,6.70
2022-11-29T17:57:33.237Z,6.80
2022-11-29T18:00:20.126Z,6.70
2022-11-29T18:03:06.892Z,6.70
2022-11-29T18:05:53.687Z,6.90
2022-11-29T18:08:41.593Z,7.00
2022-11-29T18:11:30.093Z,6.90
2022-11-29T18:14:20.458Z,6.60
2022-11-29T18:17:08.087Z,6.80
2022-11-29T18:19:56.367Z,6.60
2022-11-29T18:22:43.175Z,6.70
2022-11-29T18:25:38.623Z,7.20
2022-11-29T18:28:26.115Z,7.00
2022-11-29T18:31:14.585Z,6.60
2022-11-29T18:34:02.256Z,7.30
2022-11-29T18:36:50.433Z,6.50
2022-11-29T18:39:37.155Z,6.60
2022-11-29T18:42:25.397Z,6.60
2022-11-29T18:45:12.090Z,6.80
2022-11-29T18:48:00.551Z,6.70
2022-11-29T18:50:47.340Z,6.90
2022-11-29T18:53:36.439Z,6.50
2022-11-29T18:56:24.355Z,6.60
2022-11-29T18:59:16.572Z,7.00
2022-11-29T19:02:03.375Z,6.80
2022-11-29T19:04:51.373Z,6.90
2022-11-29T19:07:38.208Z,6.60
2022-11-29T19:10:26.351Z,6.90
2022-11-29T19:13:13.161Z,6.80
2022-11-29T19:16:01.439Z,6.90
2022-11-29T19:18:50.287Z,7.00
2022-11-29T19:21:38.548Z,6.70
2022-11-29T19:24:25.281Z,6.70
2022-11-29T19:27:13.436Z,6.80
2022-11-29T19:30:00.257Z,6.40
2022-11-29T19:32:50.363Z,7.00
2022-11-29T19:35:37.183Z,6.30
2022-11-29T19:38:25.410Z,6.80
2022-11-29T19:41:12.172Z,6.70
2022-11-29T19:44:01.435Z,7.10
2022-11-29T19:46:48.839Z,6.70
2022-11-29T19:49:38.454Z,6.80
2022-11-29T19:52:25.228Z,6.50
2022-11-29T19:55:13.518Z,6.80
2022-11-29T19:58:00.176Z,6.80
2022-11-29T20:00:48.567Z,6.60
2022-11-29T20:03:35.413Z,6.70
2022-11-29T20:06:25.370Z,6.10
2022-11-29T20:09:13.451Z,6.50
2022-11-29T20:12:01.454Z,6.80
2022-11-29T20:14:48.205Z,6.50
2022-11-29T20:17:36.353Z,6.70
2022-11-29T20:20:23.373Z,6.40
2022-11-29T20:23:11.353Z,6.80
2022-11-29T20:25:58.369Z,6.60
2022-11-29T20:28:47.356Z,6.30
2022-11-29T20:31:35.088Z,6.70
2022-11-29T20:34:23.479Z,6.40
2022-11-29T20:37:24.878Z,6.50
2022-11-29T20:40:18.372Z,6.50
2022-11-29T20:43:05.125Z,6.50
2022-11-29T20:45:54.469Z,7.10
2022-11-29T20:48:41.369Z,6.60
2022-11-29T20:51:43.369Z,6.60
2022-11-29T20:54:30.253Z,6.60
2022-11-29T20:57:17.198Z,6.90
2022-11-29T21:00:05.916Z,7.10
2022-11-29T21:02:52.651Z,6.60
2022-11-29T21:05:39.302Z,6.90
2022-11-29T21:08:26.618Z,6.80
2022-11-29T21:11:13.447Z,6.80
2022-11-29T21:14:04.629Z,6.60
2022-11-29T21:16:51.369Z,6.60
2022-11-29T21:19:39.783Z,6.60
2022-11-29T21:22:40.902Z,6.60
2022-11-29T21:25:51.043Z,6.60
2022-11-29T21:28:41.605Z,6.60
2022-11-29T21:31:29.480Z,7.10
2022-11-29T21:34:16.434Z,6.60
2022-11-29T21:37:05.194Z,6.90
2022-11-29T21:39:53.168Z,6.80
2022-11-29T21:42:40.115Z,6.90
2022-11-29T21:45:26.888Z,7.30
2022-11-29T21:48:32.172Z,6.60
2022-11-29T21:51:18.966Z,6.80
2022-11-29T21:54:05.839Z,6.80
2022-11-29T21:56:52.552Z,6.50
2022-11-29T21:59:39.388Z,6.40
2022-11-29T22:02:26.265Z,6.50
2022-11-29T22:05:13.197Z,6.50
2022-11-29T22:08:00.023Z,6.60
2022-11-29T22:10:46.841Z,7.10
2022-11-29T22:13:35.972Z,6.60
2022-11-29T22:16:22.725Z,6.60
2022-11-29T22:19:12.219Z,6.50
2022-11-29T22:22:00.923Z,6.70
2022-11-29T22:24:50.825Z,7.10
2022-11-29T22:27:37.492Z,6.60
2022-11-29T22:30:26.652Z,6.80
2022-11-29T22:33:13.705Z,7.10
2022-11-29T22:36:09.974Z,6.70
2022-11-29T22:38:56.977Z,6.60
2022-11-29T22:41:43.694Z,6.60
2022-11-29T22:44:31.392Z,6.60
2022-11-29T22:47:18.162Z,6.90
2022-11-29T22:50:05.247Z,6.70
2022-11-29T22:52:55.855Z,6.60
2022-11-29T22:55:42.574Z,7.00
2022-11-29T22:58:29.526Z,7.20
2022-11-29T23:01:20.401Z,6.90
2022-11-29T23:04:08.169Z,6.60
2022-11-29T23:06:54.886Z,6.60
2022-11-29T23:09:41.573Z,7.10
2022-11-29T23:12:28.333Z,6.60
2022-11-29T23:15:15.215Z,6.80
2022-11-29T23:18:01.911Z,6.60
2022-11-29T23:20:48.745Z,7.10
2022-11-29T23:23:36.241Z,7.10
2022-11-29T23:26:31.392Z,6.70
2022-11-29T23:29:19.010Z,6.60
2022-11-29T23:32:06.053Z,6.50
2022-11-29T23:34:54.955Z,7.20
2022-11-29T23:37:41.766Z,7.10
2022-11-29T23:40:28.560Z,6.60
2022-11-29T23:43:15.434Z,6.50
2022-11-29T23:46:12.325Z,7.20
2022-11-29T23:48:59.110Z,6.50
2022-11-29T23:51:45.831Z,6.80
2022-11-29T23:54:32.463Z,6.50
2022-11-29T23:57:19.253Z,6.50
